createdAt,value
2023-04-20T00:01:13.973Z,99375.19
2023-04-20T00:03:46.951Z,99369.63
2023-04-20T00:06:14.083Z,99372.09
2023-04-20T00:08:42.933Z,99367.78
2023-04-20T00:11:11.217Z,99364.31
2023-04-20T00:13:38.779Z,99350.56
2023-04-20T00:16:07.276Z,99353.44
2023-04-20T00:18:33.982Z,99349.53
2023-04-20T00:21:00.767Z,99348.53
2023-04-20T00:23:27.582Z,99352.41
2023-04-20T00:25:54.581Z,99337.47
2023-04-20T00:28:21.333Z,99353.22
2023-04-20T00:30:48.330Z,99347.28
2023-04-20T00:33:15.236Z,99339.91
2023-04-20T00:35:44.642Z,99341.16
2023-04-20T00:38:15.629Z,99343.41
2023-04-20T00:40:48.026Z,99345.03
2023-04-20T00:43:16.870Z,99345.25
2023-04-20T00:45:51.451Z,99337.25
2023-04-20T00:48:19.564Z,99332.53
2023-04-20T00:50:47.358Z,99340.34
2023-04-20T00:53:14.367Z,99341.78
2023-04-20T00:55:43.765Z,99338.50
2023-04-20T00:58:12.707Z,99336.84
2023-04-20T01:00:40.637Z,99337.06
2023-04-20T01:03:08.112Z,99336.84
2023-04-20T01:05:35.669Z,99327.22
2023-04-20T01:08:07.576Z,99335.00
2023-04-20T01:10:38.268Z,99324.94
2023-04-20T01:13:07.204Z,99336.22
2023-04-20T01:15:35.363Z,99335.59
2023-04-20T01:18:03.781Z,99330.69
2023-04-20T01:20:30.740Z,99327.03
2023-04-20T01:22:58.340Z,99323.72
2023-04-20T01:25:29.911Z,99330.50
2023-04-20T01:27:56.998Z,99322.66
2023-04-20T01:30:31.831Z,99328.84
2023-04-20T01:32:59.299Z,99329.88
2023-04-20T01:35:26.428Z,99327.19
2023-04-20T01:37:53.906Z,99326.38
2023-04-20T01:40:23.361Z,99324.34
2023-04-20T01:42:53.412Z,99328.03
2023-04-20T01:45:22.544Z,99319.22
2023-04-20T01:47:50.878Z,99320.84
2023-04-20T01:50:17.751Z,99313.47
2023-04-20T01:52:46.167Z,99312.66
2023-04-20T01:55:13.469Z,99319.81
2023-04-20T01:57:40.215Z,99314.50
2023-04-20T02:00:09.045Z,99310.59
2023-04-20T02:02:41.009Z,99309.75
2023-04-20T02:05:08.460Z,99322.28
2023-04-20T02:07:35.476Z,99317.16
2023-04-20T02:10:03.591Z,99308.16
2023-04-20T02:12:32.204Z,99321.88
2023-04-20T02:14:59.099Z,99318.59
2023-04-20T02:17:29.101Z,99316.94
2023-04-20T02:19:56.861Z,99323.53
2023-04-20T02:22:26.171Z,99319.84
2023-04-20T02:24:53.620Z,99318.41
2023-04-20T02:27:21.237Z,99309.41
2023-04-20T02:29:48.243Z,99305.06
2023-04-20T02:32:14.859Z,99299.97
2023-04-20T02:34:41.743Z,99306.72
2023-04-20T02:37:08.401Z,99309.59
2023-04-20T02:39:51.243Z,99307.53
2023-04-20T02:42:36.213Z,99310.41
2023-04-20T02:45:06.710Z,99300.56
2023-04-20T02:47:44.576Z,99303.03
2023-04-20T02:53:11.605Z,99303.63
2023-04-20T02:58:57.057Z,99307.53
2023-04-20T03:01:47.153Z,99309.59
2023-04-20T03:04:16.679Z,99320.03
2023-04-20T03:06:53.786Z,99317.19
2023-04-20T03:09:26.481Z,99314.69
2023-04-20T03:11:58.047Z,99304.25
2023-04-20T03:15:00.210Z,99310.41
2023-04-20T03:17:44.140Z,99296.88
2023-04-20T03:20:11.661Z,99304.28
2023-04-20T03:22:38.538Z,99301.81
2023-04-20T03:25:07.781Z,99310.81
2023-04-20T03:27:51.227Z,99306.50
2023-04-20T03:30:19.171Z,99308.34
2023-04-20T03:32:50.350Z,99310.81
2023-04-20T03:35:17.853Z,99313.25
2023-04-20T03:37:44.724Z,99311.84
2023-04-20T03:40:11.914Z,99305.28
2023-04-20T03:42:38.627Z,99312.44
2023-04-20T03:45:06.666Z,99312.47
2023-04-20T03:47:33.468Z,99312.22
2023-04-20T03:50:00.227Z,99307.91
2023-04-20T03:52:27.141Z,99308.31
2023-04-20T03:54:53.808Z,99314.06
2023-04-20T03:57:20.476Z,99327.75
2023-04-20T03:59:48.423Z,99326.13
2023-04-20T04:02:18.880Z,99327.13
2023-04-20T04:04:47.007Z,99313.59
2023-04-20T04:07:13.846Z,99325.28
2023-04-20T04:09:42.428Z,99324.06
2023-04-20T04:12:09.600Z,99321.03
2023-04-20T04:14:36.340Z,99323.25
2023-04-20T04:17:03.703Z,99320.59
2023-04-20T04:19:32.397Z,99314.88
2023-04-20T04:21:59.634Z,99321.81
2023-04-20T04:24:26.861Z,99319.16
2023-04-20T04:27:05.337Z,99317.75
2023-04-20T04:29:38.565Z,99322.66
2023-04-20T04:32:09.662Z,99329.63
2023-04-20T04:34:37.766Z,99332.91
2023-04-20T04:37:04.870Z,99332.91
2023-04-20T04:39:46.358Z,99340.28
2023-04-20T04:42:19.240Z,99340.28
2023-04-20T04:44:47.210Z,99344.81
2023-04-20T04:47:22.117Z,99340.72
2023-04-20T04:49:49.709Z,99340.09
2023-04-20T04:52:16.367Z,99344.00
2023-04-20T04:54:43.105Z,99343.59
2023-04-20T04:57:09.727Z,99344.22
2023-04-20T04:59:36.521Z,99350.19
2023-04-20T05:02:03.318Z,99345.88
2023-04-20T05:04:30.220Z,99352.44
2023-04-20T05:06:57.035Z,99354.25
2023-04-20T05:09:23.774Z,99351.00
2023-04-20T05:11:50.422Z,99351.19
2023-04-20T05:14:17.086Z,99351.41
2023-04-20T05:16:43.918Z,99357.94
2023-04-20T05:19:10.803Z,99351.19
2023-04-20T05:21:39.301Z,99352.78
2023-04-20T05:24:06.575Z,99364.25
2023-04-20T05:26:33.345Z,99364.59
2023-04-20T05:29:00.042Z,99370.53
2023-04-20T05:31:26.807Z,99367.44
2023-04-20T05:33:53.513Z,99366.59
2023-04-20T05:36:20.786Z,99362.09
2023-04-20T05:38:47.501Z,99363.97
2023-04-20T05:41:14.201Z,99361.06
2023-04-20T05:43:41.084Z,99359.03
2023-04-20T05:46:07.694Z,99370.03
2023-04-20T05:48:34.376Z,99365.78
2023-04-20T05:51:01.099Z,99364.69
2023-04-20T05:53:27.800Z,99362.22
2023-04-20T05:55:54.544Z,99372.59
2023-04-20T05:58:21.233Z,99367.63
2023-04-20T06:00:47.902Z,99373.91
2023-04-20T06:03:14.792Z,99371.50
2023-04-20T06:05:41.680Z,99371.13
2023-04-20T06:08:08.418Z,99380.81
2023-04-20T06:10:35.226Z,99370.72
2023-04-20T06:13:01.935Z,99374.16
2023-04-20T06:15:28.658Z,99371.44
2023-04-20T06:17:55.393Z,99374.84
2023-04-20T06:20:22.159Z,99372.25
2023-04-20T06:22:48.916Z,99375.91
2023-04-20T06:25:16.009Z,99380.53
2023-04-20T06:27:42.816Z,99376.69
2023-04-20T06:30:10.115Z,99381.06
2023-04-20T06:32:37.974Z,99370.69
2023-04-20T06:35:07.871Z,99377.81
2023-04-20T06:37:37.701Z,99371.91
2023-04-20T06:40:08.950Z,99373.88
2023-04-20T06:42:36.276Z,99359.25
2023-04-20T06:45:06.759Z,99369.19
2023-04-20T06:47:34.098Z,99366.69
2023-04-20T06:50:02.221Z,99369.63
2023-04-20T06:52:30.625Z,99367.09
2023-04-20T06:54:59.389Z,99370.31
2023-04-20T06:57:28.530Z,99374.75
2023-04-20T06:59:55.219Z,99374.22
2023-04-20T07:02:21.937Z,99372.41
2023-04-20T07:04:48.883Z,99372.91
2023-04-20T07:07:15.688Z,99369.50
2023-04-20T07:09:42.406Z,99379.03
2023-04-20T07:12:09.518Z,99372.19
2023-04-20T07:14:36.188Z,99382.00
2023-04-20T07:17:02.901Z,99382.22
2023-04-20T07:19:29.618Z,99383.75
2023-04-20T07:21:56.252Z,99387.09
2023-04-20T07:24:22.892Z,99384.69
2023-04-20T07:26:49.808Z,99388.34
2023-04-20T07:29:19.018Z,99387.22
2023-04-20T07:31:46.060Z,99392.66
2023-04-20T07:34:12.800Z,99389.34
2023-04-20T07:36:39.499Z,99386.06
2023-04-20T07:39:06.261Z,99389.56
2023-04-20T07:41:32.971Z,99391.03
2023-04-20T07:43:59.785Z,99401.78
2023-04-20T07:46:28.410Z,99392.34
2023-04-20T07:48:55.123Z,99389.88
2023-04-20T07:51:21.788Z,99390.81
2023-04-20T07:53:48.571Z,99396.28
2023-04-20T07:56:15.474Z,99391.72
2023-04-20T07:58:42.155Z,99399.69
2023-04-20T08:01:08.852Z,99397.28
2023-04-20T08:03:36.404Z,99391.63
2023-04-20T08:06:03.597Z,99392.44
2023-04-20T08:08:30.439Z,99394.81
2023-04-20T08:10:58.936Z,99397.63
2023-04-20T08:13:26.030Z,99392.81
2023-04-20T08:15:52.794Z,99400.00
2023-04-20T08:18:21.181Z,99395.69
2023-04-20T08:20:48.157Z,99389.66
2023-04-20T08:23:14.818Z,99385.25
2023-04-20T08:25:41.486Z,99385.66
2023-04-20T08:28:12.025Z,99378.75
2023-04-20T08:30:42.263Z,99379.53
2023-04-20T08:33:08.992Z,99389.16
2023-04-20T08:35:38.000Z,99388.78
2023-04-20T08:38:04.659Z,99389.53
2023-04-20T08:40:32.049Z,99381.69
2023-04-20T08:43:01.577Z,99379.38
2023-04-20T08:45:29.184Z,99388.41
2023-04-20T08:47:59.811Z,99390.16
2023-04-20T08:50:26.611Z,99384.50
2023-04-20T08:52:53.228Z,99381.56
2023-04-20T08:55:19.966Z,99382.06
2023-04-20T08:57:49.062Z,99382.38
2023-04-20T09:00:16.317Z,99383.38
2023-04-20T09:02:54.523Z,99383.53
2023-04-20T09:05:30.053Z,99390.09
2023-04-20T09:07:59.100Z,99379.28
2023-04-20T09:10:27.646Z,99379.94
2023-04-20T09:12:54.378Z,99387.78
2023-04-20T09:15:28.363Z,99377.16
2023-04-20T09:17:55.766Z,99378.59
2023-04-20T09:20:34.013Z,99368.50
2023-04-20T09:23:13.613Z,99364.75
2023-04-20T09:25:42.705Z,99362.94
2023-04-20T09:28:09.923Z,99362.88
2023-04-20T09:30:40.366Z,99365.97
2023-04-20T09:33:08.655Z,99363.41
2023-04-20T09:35:36.210Z,99358.25
2023-04-20T09:38:02.885Z,99361.69
2023-04-20T09:40:30.474Z,99365.81
2023-04-20T09:42:59.458Z,99358.94
2023-04-20T09:45:26.289Z,99359.22
2023-04-20T09:47:53.214Z,99358.69
2023-04-20T09:50:29.073Z,99359.69
2023-04-20T09:53:00.342Z,99358.84
2023-04-20T09:55:27.526Z,99358.31
2023-04-20T09:57:54.416Z,99355.69
2023-04-20T10:00:21.708Z,99349.75
2023-04-20T10:02:48.614Z,99347.00
2023-04-20T10:05:16.929Z,99353.34
2023-04-20T10:07:44.193Z,99342.75
2023-04-20T10:10:16.100Z,99334.09
2023-04-20T10:12:50.341Z,99346.25
2023-04-20T10:15:17.320Z,99342.53
2023-04-20T10:17:44.531Z,99338.38
2023-04-20T10:20:25.653Z,99341.44
2023-04-20T10:22:53.098Z,99343.47
2023-04-20T10:25:24.373Z,99341.72
2023-04-20T10:27:55.528Z,99342.56
2023-04-20T10:30:23.299Z,99341.03
2023-04-20T10:32:50.688Z,99333.47
2023-04-20T10:35:17.583Z,99328.53
2023-04-20T10:37:49.552Z,99326.53
2023-04-20T10:40:16.756Z,99320.59
2023-04-20T10:42:44.766Z,99314.72
2023-04-20T10:45:12.223Z,99311.66
2023-04-20T10:47:40.842Z,99311.97
2023-04-20T10:50:12.556Z,99300.88
2023-04-20T10:52:41.090Z,99301.13
2023-04-20T10:55:22.035Z,99294.28
2023-04-20T10:57:49.525Z,99294.84
2023-04-20T11:00:22.042Z,99297.47
2023-04-20T11:02:54.214Z,99287.72
2023-04-20T11:05:23.638Z,99285.44
2023-04-20T11:08:01.226Z,99285.44
2023-04-20T11:10:42.478Z,99290.25
2023-04-20T11:13:25.835Z,99279.63
2023-04-20T11:15:52.729Z,99279.84
2023-04-20T11:18:19.542Z,99271.25
2023-04-20T11:20:52.865Z,99275.41
2023-04-20T11:23:21.338Z,99275.13
2023-04-20T11:25:57.581Z,99272.13
2023-04-20T11:28:25.910Z,99274.22
2023-04-20T11:30:52.866Z,99272.69
2023-04-20T11:33:29.906Z,99262.53
2023-04-20T11:36:00.980Z,99268.34
2023-04-20T11:38:28.599Z,99259.44
2023-04-20T11:40:56.052Z,99261.44
2023-04-20T11:43:22.945Z,99272.38
2023-04-20T11:45:49.603Z,99264.78
2023-04-20T11:48:16.284Z,99272.28
2023-04-20T11:50:43.285Z,99270.84
2023-04-20T11:53:14.072Z,99266.16
2023-04-20T11:55:41.855Z,99267.38
2023-04-20T11:58:08.746Z,99260.44
2023-04-20T12:00:35.572Z,99258.09
2023-04-20T12:03:02.488Z,99258.41
2023-04-20T12:05:29.745Z,99252.44
2023-04-20T12:07:56.775Z,99253.59
2023-04-20T12:10:23.580Z,99250.44
2023-04-20T12:12:50.282Z,99252.63
2023-04-20T12:15:17.127Z,99251.94
2023-04-20T12:17:43.780Z,99245.16
2023-04-20T12:20:12.528Z,99244.19
2023-04-20T12:22:39.297Z,99242.50
2023-04-20T12:25:06.850Z,99244.16
2023-04-20T12:27:33.509Z,99242.41
2023-04-20T12:30:00.396Z,99238.28
2023-04-20T12:32:27.170Z,99235.69
2023-04-20T12:34:53.871Z,99239.16
2023-04-20T12:37:20.827Z,99232.09
2023-04-20T12:39:47.551Z,99227.84
2023-04-20T12:42:14.264Z,99226.88
2023-04-20T12:44:40.979Z,99233.59
2023-04-20T12:47:10.067Z,99219.06
2023-04-20T12:49:39.350Z,99221.31
2023-04-20T12:52:07.922Z,99219.59
2023-04-20T12:54:34.853Z,99221.09
2023-04-20T12:57:02.533Z,99218.97
2023-04-20T12:59:29.273Z,99217.69
2023-04-20T13:01:56.030Z,99196.63
2023-04-20T13:04:23.304Z,99210.06
2023-04-20T13:06:50.416Z,99207.00
2023-04-20T13:09:17.080Z,99212.84
2023-04-20T13:11:43.810Z,99210.69
2023-04-20T13:14:10.523Z,99208.13
2023-04-20T13:16:37.692Z,99210.94
2023-04-20T13:19:04.457Z,99196.25
2023-04-20T13:21:31.092Z,99204.28
2023-04-20T13:23:57.757Z,99206.28
2023-04-20T13:26:24.428Z,99207.19
2023-04-20T13:28:51.041Z,99199.09
2023-04-20T13:31:17.805Z,99201.53
2023-04-20T13:33:44.508Z,99198.06
2023-04-20T13:36:11.456Z,99196.78
2023-04-20T13:38:38.096Z,99190.16
2023-04-20T13:41:05.016Z,99196.16
2023-04-20T13:43:31.590Z,99192.44
2023-04-20T13:45:58.327Z,99187.53
2023-04-20T13:48:27.798Z,99197.53
2023-04-20T13:50:54.765Z,99186.78
2023-04-20T13:53:21.993Z,99188.31
2023-04-20T13:55:48.742Z,99188.41
2023-04-20T13:58:15.367Z,99182.41
2023-04-20T14:00:41.998Z,99176.88
2023-04-20T14:03:12.077Z,99181.81
2023-04-20T14:05:39.045Z,99179.16
2023-04-20T14:08:06.932Z,99174.03
2023-04-20T14:10:34.088Z,99175.50
2023-04-20T14:13:01.594Z,99175.81
2023-04-20T14:15:28.323Z,99169.19
2023-04-20T14:17:55.077Z,99174.03
2023-04-20T14:20:21.802Z,99170.19
2023-04-20T14:22:48.488Z,99167.13
2023-04-20T14:25:15.048Z,99167.88
2023-04-20T14:27:41.684Z,99169.38
2023-04-20T14:30:09.176Z,99171.56
2023-04-20T14:32:36.245Z,99164.94
2023-04-20T14:35:05.623Z,99179.63
2023-04-20T14:37:33.264Z,99174.66
2023-04-20T14:39:59.961Z,99173.47
2023-04-20T14:42:26.711Z,99164.84
2023-04-20T14:44:53.615Z,99157.31
2023-04-20T14:47:20.830Z,99167.03
2023-04-20T14:49:47.974Z,99161.53
2023-04-20T14:52:14.757Z,99169.94
2023-04-20T14:54:41.345Z,99168.25
2023-04-20T14:57:08.019Z,99166.38
2023-04-20T14:59:34.687Z,99168.09
2023-04-20T15:02:03.274Z,99151.88
2023-04-20T15:04:30.782Z,99166.94
2023-04-20T15:06:57.739Z,99163.97
2023-04-20T15:09:24.444Z,99154.69
2023-04-20T15:11:51.089Z,99161.81
2023-04-20T15:14:17.796Z,99163.34
2023-04-20T15:16:44.588Z,99161.34
2023-04-20T15:19:11.247Z,99156.97
2023-04-20T15:21:37.917Z,99157.09
2023-04-20T15:24:04.805Z,99154.03
2023-04-20T15:26:31.445Z,99153.56
2023-04-20T15:28:58.041Z,99153.84
2023-04-20T15:31:24.687Z,99149.78
2023-04-20T15:33:51.465Z,99150.59
2023-04-20T15:36:19.438Z,99162.69
2023-04-20T15:38:46.442Z,99154.94
2023-04-20T15:41:13.198Z,99154.78
2023-04-20T15:43:39.849Z,99149.19
2023-04-20T15:46:06.653Z,99146.78
2023-04-20T15:48:33.336Z,99154.25
2023-04-20T15:51:00.036Z,99155.13
2023-04-20T15:53:26.779Z,99156.78
2023-04-20T15:55:53.485Z,99149.63
2023-04-20T15:58:20.160Z,99142.69
2023-04-20T16:00:46.881Z,99150.50
2023-04-20T16:03:13.718Z,99159.75
2023-04-20T16:05:40.524Z,99149.66
2023-04-20T16:08:07.275Z,99147.75
2023-04-20T16:10:34.276Z,99142.50
2023-04-20T16:13:00.983Z,99148.16
2023-04-20T16:15:27.712Z,99153.59
2023-04-20T16:17:54.837Z,99143.91
2023-04-20T16:20:21.589Z,99144.78
2023-04-20T16:22:48.276Z,99137.03
2023-04-20T16:25:22.616Z,99134.56
2023-04-20T16:27:51.512Z,99143.81
2023-04-20T16:30:18.381Z,99142.22
2023-04-20T16:32:45.122Z,99140.38
2023-04-20T16:35:11.891Z,99139.34
2023-04-20T16:37:38.646Z,99150.50
2023-04-20T16:40:06.214Z,99151.88
2023-04-20T16:42:34.302Z,99145.16
2023-04-20T16:45:01.307Z,99148.50
2023-04-20T16:47:28.025Z,99150.97
2023-04-20T16:49:56.007Z,99149.66
2023-04-20T16:52:22.698Z,99156.25
2023-04-20T16:54:49.348Z,99142.72
2023-04-20T16:57:16.005Z,99147.91
2023-04-20T16:59:44.059Z,99152.00
2023-04-20T17:02:12.478Z,99143.09
2023-04-20T17:04:39.207Z,99151.50
2023-04-20T17:07:06.305Z,99158.00
2023-04-20T17:09:33.039Z,99155.03
2023-04-20T17:11:59.801Z,99158.25
2023-04-20T17:14:26.532Z,99161.47
2023-04-20T17:16:54.285Z,99161.75
2023-04-20T17:19:21.135Z,99166.03
2023-04-20T17:21:47.866Z,99168.47
2023-04-20T17:24:14.657Z,99176.78
2023-04-20T17:26:41.306Z,99174.88
2023-04-20T17:29:08.109Z,99172.34
2023-04-20T17:31:34.845Z,99178.81
2023-04-20T17:34:01.562Z,99172.81
2023-04-20T17:36:28.201Z,99172.22
2023-04-20T17:38:54.842Z,99188.34
2023-04-20T17:41:21.472Z,99182.03
2023-04-20T17:43:50.865Z,99175.19
2023-04-20T17:46:17.569Z,99179.13
2023-04-20T17:48:44.365Z,99179.53
2023-04-20T17:51:13.694Z,99178.06
2023-04-20T17:53:40.390Z,99185.00
2023-04-20T17:56:07.080Z,99183.25
2023-04-20T17:58:33.697Z,99192.53
2023-04-20T18:01:00.368Z,99193.25
2023-04-20T18:03:28.171Z,99203.97
2023-04-20T18:05:54.986Z,99201.38
2023-04-20T18:08:23.273Z,99197.91
2023-04-20T18:10:50.065Z,99200.28
2023-04-20T18:13:16.742Z,99201.72
2023-04-20T18:15:43.723Z,99206.34
2023-04-20T18:18:10.472Z,99205.75
2023-04-20T18:20:37.108Z,99212.47
2023-04-20T18:23:03.726Z,99202.50
2023-04-20T18:25:30.412Z,99214.34
2023-04-20T18:27:57.110Z,99214.91
2023-04-20T18:30:23.795Z,99208.72
2023-04-20T18:32:50.495Z,99218.47
2023-04-20T18:35:17.235Z,99216.69
2023-04-20T18:37:43.868Z,99220.56
2023-04-20T18:40:11.005Z,99221.69
2023-04-20T18:42:37.673Z,99232.22
2023-04-20T18:45:06.182Z,99225.16
2023-04-20T18:47:32.851Z,99234.72
2023-04-20T18:49:59.576Z,99228.69
2023-04-20T18:52:26.322Z,99229.88
2023-04-20T18:54:55.388Z,99232.25
2023-04-20T18:57:26.162Z,99233.84
2023-04-20T18:59:53.062Z,99238.28
2023-04-20T19:02:20.550Z,99242.72
2023-04-20T19:04:47.352Z,99245.78
2023-04-20T19:07:14.000Z,99247.78
2023-04-20T19:09:40.758Z,99238.19
2023-04-20T19:12:07.513Z,99250.69
2023-04-20T19:14:34.279Z,99233.91
2023-04-20T19:17:04.038Z,99242.28
2023-04-20T19:19:30.729Z,99248.00
2023-04-20T19:21:59.034Z,99242.41
2023-04-20T19:24:25.840Z,99248.00
2023-04-20T19:26:52.975Z,99252.88
2023-04-20T19:29:19.735Z,99252.75
2023-04-20T19:31:46.421Z,99253.91
2023-04-20T19:34:13.518Z,99251.53
2023-04-20T19:36:41.828Z,99255.28
2023-04-20T19:39:09.234Z,99256.50
2023-04-20T19:41:35.937Z,99267.63
2023-04-20T19:44:06.188Z,99266.19
2023-04-20T19:46:33.710Z,99270.97
2023-04-20T19:49:03.307Z,99270.16
2023-04-20T19:51:31.467Z,99271.13
2023-04-20T19:54:01.903Z,99279.09
2023-04-20T19:56:28.636Z,99277.91
2023-04-20T19:58:55.355Z,99277.59
2023-04-20T20:01:22.018Z,99274.75
2023-04-20T20:03:48.843Z,99268.09
2023-04-20T20:06:15.874Z,99272.63
2023-04-20T20:08:42.706Z,99277.66
2023-04-20T20:11:09.429Z,99273.66
2023-04-20T20:13:36.028Z,99276.19
2023-04-20T20:16:02.834Z,99274.78
2023-04-20T20:18:29.484Z,99277.31
2023-04-20T20:20:56.129Z,99277.75
2023-04-20T20:23:22.786Z,99276.47
2023-04-20T20:25:49.429Z,99279.81
2023-04-20T20:28:16.110Z,99280.13
2023-04-20T20:30:45.210Z,99281.59
2023-04-20T20:33:12.507Z,99274.81
2023-04-20T20:35:39.901Z,99272.38
2023-04-20T20:38:07.790Z,99273.91
2023-04-20T20:40:35.051Z,99272.66
2023-04-20T20:43:02.129Z,99276.59
2023-04-20T20:45:28.984Z,99278.91
2023-04-20T20:47:55.840Z,99274.22
2023-04-20T20:50:23.034Z,99272.19
2023-04-20T20:52:49.883Z,99263.78
2023-04-20T20:55:16.541Z,99277.22
2023-04-20T20:57:43.270Z,99276.38
2023-04-20T21:00:11.978Z,99272.53
2023-04-20T21:02:39.082Z,99270.50
2023-04-20T21:05:06.330Z,99269.69
2023-04-20T21:07:33.101Z,99271.16
2023-04-20T21:10:00.049Z,99272.00
2023-04-20T21:12:26.678Z,99272.84
2023-04-20T21:14:53.406Z,99273.50
2023-04-20T21:17:20.397Z,99283.56
2023-04-20T21:19:47.249Z,99272.28
2023-04-20T21:22:13.987Z,99272.94
2023-04-20T21:24:40.914Z,99273.19
2023-04-20T21:27:07.548Z,99279.59
2023-04-20T21:29:34.190Z,99276.56
2023-04-20T21:32:00.853Z,99277.78
2023-04-20T21:34:27.837Z,99286.25
2023-04-20T21:36:54.735Z,99270.66
2023-04-20T21:39:21.450Z,99283.19
2023-04-20T21:41:48.191Z,99286.69
2023-04-20T21:44:14.839Z,99293.06
2023-04-20T21:46:41.634Z,99288.38
2023-04-20T21:59:52.126Z,99288.59
2023-04-20T22:02:19.446Z,99288.22
2023-04-20T22:04:46.525Z,99290.50
2023-04-20T22:07:14.667Z,99287.84
2023-04-20T22:09:43.926Z,99288.03
2023-04-20T22:12:13.314Z,99289.09
2023-04-20T22:14:43.764Z,99290.31
2023-04-20T22:17:12.535Z,99292.59
2023-04-20T22:19:54.973Z,99294.88
2023-04-20T22:22:23.496Z,99300.38
2023-04-20T22:24:51.052Z,99298.13
2023-04-20T22:27:18.386Z,99302.69
2023-04-20T22:29:45.414Z,99293.47
2023-04-20T22:32:12.306Z,99293.47
2023-04-20T22:34:39.270Z,99296.97
2023-04-20T22:37:09.125Z,99289.38
2023-04-20T22:39:36.640Z,99298.63
2023-04-20T22:50:14.759Z,99302.56
2023-04-20T22:52:41.761Z,99308.50
2023-04-20T22:55:09.697Z,99309.34
2023-04-20T22:57:39.156Z,99319.41
2023-04-20T23:00:10.274Z,99320.41
2023-04-20T23:02:37.764Z,99325.75
2023-04-20T23:05:06.480Z,99329.88
2023-04-20T23:07:33.504Z,99329.03
2023-04-20T23:10:00.485Z,99322.25
2023-04-20T23:12:29.481Z,99320.22
2023-04-20T23:15:00.538Z,99321.88
2023-04-20T23:17:28.466Z,99317.56
2023-04-20T23:19:56.567Z,99314.91
2023-04-20T23:22:23.869Z,99318.78
2023-04-20T23:24:50.885Z,99318.16
2023-04-20T23:27:19.319Z,99305.41
2023-04-20T23:29:46.480Z,99296.81
2023-04-20T23:32:13.432Z,99308.06
2023-04-20T23:34:40.323Z,99305.41
2023-04-20T23:37:07.056Z,99311.56
2023-04-20T23:39:37.995Z,99302.34
2023-04-20T23:42:05.701Z,99307.44
2023-04-20T23:44:32.525Z,99310.13
2023-04-20T23:47:00.135Z,99307.06
2023-04-20T23:49:27.161Z,99295.16
2023-04-20T23:55:19.170Z,99308.06
2023-04-20T23:57:47.652Z,99295.38
